Time;durP1;ratioP1;P1;durP2;ratioP2;P2;SDS_P1;SDS_P2;PMS_P1;PMS_P2;Temp;Humidity;BMP_temperature;BMP_pressure;BME280_temperature;BME280_humidity;BME280_pressure;Samples;Min_cycle;Max_cycle;Signal;HPM_P1;HPM_P2
2022/07/05 00:00:47;;;;;;;;;;;;;;;16.38;57.56;100837.72;4962152;28;1023;-58
2022/07/05 00:03:13;;;;;;;;;;;;;;;16.33;57.15;100837.69;4961684;28;1169;-57
2022/07/05 00:05:38;;;;;;;;;;;;;;;16.28;56.99;100840.41;4961573;29;1015;-56
2022/07/05 00:08:04;;;;;;;;;;;;;;;16.20;57.16;100836.28;4961622;28;1239;-56
2022/07/05 00:10:30;;;;;;;;;;;;;;;16.19;56.72;100839.28;4957086;28;1420;-56
2022/07/05 00:12:55;;;;;;;;;;;;;;;16.12;57.09;100852.41;4961493;29;1899;-55
2022/07/05 00:15:21;;;;;;;;;;;;;;;16.08;56.57;100827.47;4957965;29;1105;-54
2022/07/05 00:17:47;;;;;;;;;;;;;;;16.04;56.94;100843.59;4961630;28;927;-54
2022/07/05 00:20:13;;;;;;;;;;;;;;;16.06;56.75;100833.22;4966962;28;1236;-55
2022/07/05 00:22:38;;;;;;;;;;;;;;;16.02;56.73;100832.09;4962141;29;995;-54
2022/07/05 00:25:04;;;;;;;;;;;;;;;16.96;56.89;100844.94;4948058;28;1102;-54
2022/07/05 00:27:29;;;;;;;;;;;;;;;16.83;57.41;100843.53;4961700;29;1078;-53
2022/07/05 00:29:54;;;;;;;;;;;;;;;16.55;57.53;100839.38;4961351;28;1066;-53
2022/07/05 00:32:20;;;;;;;;;;;;;;;16.37;57.67;100846.22;4961945;29;1919;-54
2022/07/05 00:34:45;;;;;;;;;;;;;;;16.29;57.53;100844.81;4961301;28;1010;-53
2022/07/05 00:37:12;;;;;;;;;;;;;;;16.25;57.44;100832.72;4961517;28;1149;-54
2022/07/05 00:39:37;;;;;;;;;;;;;;;16.21;57.00;100837.09;4961430;28;1042;-54
2022/07/05 00:42:03;;;;;;;;;;;;;;;16.17;57.02;100831.34;4960992;29;967;-54
2022/07/05 00:44:34;;;;;;;;;;;;;;;16.16;57.00;100831.59;4961375;29;1023;-53
2022/07/05 00:47:00;;;;;;;;;;;;;;;16.15;56.66;100832.69;4944467;29;1057;-54
2022/07/05 00:49:26;;;;;;;;;;;;;;;16.04;56.72;100835.38;4965094;28;1223;-52
2022/07/05 00:51:51;;;;;;;;;;;;;;;16.00;56.86;100828.78;4947803;29;1767;-54
2022/07/05 00:54:17;;;;;;;;;;;;;;;15.98;56.85;100833.72;4962200;28;1906;-55
2022/07/05 00:56:42;;;;;;;;;;;;;;;15.96;56.65;100826.84;4947369;29;1797;-55
2022/07/05 00:59:08;;;;;;;;;;;;;;;15.97;56.41;100834.81;4961131;29;1007;-52
2022/07/05 01:01:33;;;;;;;;;;;;;;;15.97;56.94;100834.81;4960943;28;1251;-54
2022/07/05 01:03:59;;;;;;;;;;;;;;;17.32;56.65;100824.84;4946852;29;1011;-54
2022/07/05 01:06:24;;;;;;;;;;;;;;;16.69;57.63;100826.78;4959747;28;1245;-55
2022/07/05 01:08:50;;;;;;;;;;;;;;;16.42;57.99;100830.59;4943588;29;1086;-54
2022/07/05 01:11:15;;;;;;;;;;;;;;;16.37;57.46;100832.50;4945240;28;1142;-53
2022/07/05 01:13:41;;;;;;;;;;;;;;;16.25;57.27;100821.75;4960595;29;1985;-54
2022/07/05 01:16:06;;;;;;;;;;;;;;;16.21;57.37;100828.88;4956653;29;1046;-55
2022/07/05 01:18:32;;;;;;;;;;;;;;;16.19;57.01;100828.31;4960179;28;1014;-54
2022/07/05 01:21:01;;;;;;;;;;;;;;;16.11;57.08;100823.34;4961058;29;1007;-53
2022/07/05 01:23:26;;;;;;;;;;;;;;;16.08;56.84;100824.72;4960708;28;995;-54
2022/07/05 01:25:53;;;;;;;;;;;;;;;16.08;56.54;100824.72;4959626;28;1136;-54
2022/07/05 01:28:18;;;;;;;;;;;;;;;16.04;56.95;100831.81;4943527;29;1015;-54
2022/07/05 01:30:44;;;;;;;;;;;;;;;16.04;56.61;100823.59;4960138;29;896;-54
2022/07/05 01:33:09;;;;;;;;;;;;;;;17.36;56.61;100831.44;4942891;29;1989;-54
2022/07/05 01:35:35;;;;;;;;;;;;;;;16.74;57.49;100821.28;4960300;28;1312;-54
2022/07/05 01:38:00;;;;;;;;;;;;;;;16.48;57.69;100816.84;4960131;29;1016;-54
2022/07/05 01:40:26;;;;;;;;;;;;;;;16.35;57.60;100824.50;4963566;28;1161;-54
2022/07/05 01:42:51;;;;;;;;;;;;;;;16.30;57.27;100826.41;4960824;28;1546;-55
2022/07/05 01:45:38;;;;;;;;;;;;;;;16.28;56.93;100823.94;4939978;28;1182;-55
2022/07/05 01:48:02;;;;;;;;;;;;;;;16.18;56.89;100829.41;4964308;28;1582;-54
2022/07/05 01:50:28;;;;;;;;;;;;;;;16.15;56.92;100829.94;4942921;29;1230;-52
2022/07/05 01:52:54;;;;;;;;;;;;;;;16.10;56.71;100821.69;4963108;28;1975;-55
2022/07/05 01:55:19;;;;;;;;;;;;;;;16.07;56.74;100823.06;4947797;29;1098;-54
2022/07/05 01:57:45;;;;;;;;;;;;;;;16.02;56.67;100815.66;4947154;28;1089;-52
2022/07/05 02:00:10;;;;;;;;;;;;;;;16.32;57.17;100814.06;4960247;29;1024;-54
2022/07/05 02:02:42;;;;;;;;;;;;;;;17.35;56.52;100803.16;4959467;28;1030;-54
2022/07/05 02:05:08;;;;;;;;;;;;;;;16.64;57.99;100815.78;4960928;28;1039;-53
2022/07/05 02:07:34;;;;;;;;;;;;;;;16.48;57.83;100825.94;4942004;29;1121;-54
2022/07/05 02:09:59;;;;;;;;;;;;;;;16.37;57.68;100816.84;4945474;29;1216;-54
2022/07/05 02:12:25;;;;;;;;;;;;;;;16.28;57.34;100812.97;4943411;29;1911;-54
2022/07/05 02:14:51;;;;;;;;;;;;;;;16.28;57.17;100821.19;4946193;29;1353;-53
2022/07/05 02:17:18;;;;;;;;;;;;;;;16.17;56.92;100828.59;4947800;29;1456;-54
2022/07/05 02:19:48;;;;;;;;;;;;;;;16.16;57.02;100828.84;4941340;28;1656;-53
2022/07/05 02:22:16;;;;;;;;;;;;;;;16.11;56.85;100831.59;4942134;29;2157;-52
2022/07/05 02:24:41;;;;;;;;;;;;;;;16.08;56.64;100835.69;4946238;29;1327;-53
2022/07/05 02:27:17;;;;;;;;;;;;;;;16.07;56.70;100834.03;4945384;29;1231;-54
2022/07/05 02:29:43;;;;;;;;;;;;;;;16.05;56.50;100841.72;4945046;29;1109;-52
2022/07/05 02:32:09;;;;;;;;;;;;;;;16.25;56.94;100840.94;4945217;29;1918;-52
2022/07/05 02:34:35;;;;;;;;;;;;;;;17.38;56.63;100852.06;4943128;29;1322;-54
2022/07/05 02:37:00;;;;;;;;;;;;;;;16.69;57.86;100854.22;4943161;29;1208;-53
2022/07/05 02:39:27;;;;;;;;;;;;;;;16.49;57.98;100851.44;4941699;29;1228;-53
2022/07/05 02:41:55;;;;;;;;;;;;;;;16.37;57.53;100852.50;4947901;28;1178;-53
2022/07/05 02:44:21;;;;;;;;;;;;;;;16.26;57.35;100853.59;4941445;29;1404;-53
2022/07/05 02:46:48;;;;;;;;;;;;;;;16.23;57.33;100843.16;4941119;28;1176;-51
2022/07/05 02:49:14;;;;;;;;;;;;;;;16.18;57.09;100851.34;4944896;29;1202;-51
2022/07/05 02:51:40;;;;;;;;;;;;;;;16.13;57.01;100851.31;4944941;28;1115;-55
2022/07/05 02:54:08;;;;;;;;;;;;;;;16.12;57.04;100852.41;4956289;29;1971;-56
2022/07/05 02:56:36;;;;;;;;;;;;;;;17.21;56.86;100846.06;4941245;29;1236;-56
2022/07/05 02:59:03;;;;;;;;;;;;;;;16.69;57.56;100850.66;4941918;29;1247;-55
2022/07/05 03:01:31;;;;;;;;;;;;;;;16.46;57.75;100849.25;4946272;29;1280;-55
2022/07/05 03:04:00;;;;;;;;;;;;;;;16.38;57.66;100840.44;4945028;29;1173;-54
2022/07/05 03:06:27;;;;;;;;;;;;;;;16.32;57.37;100836.03;4942480;29;1125;-55
2022/07/05 03:08:52;;;;;;;;;;;;;;;16.36;57.41;100839.88;4958332;28;1039;-56
2022/07/05 03:11:20;;;;;;;;;;;;;;;16.25;57.48;100846.44;4941265;29;1597;-56
2022/07/05 03:13:47;;;;;;;;;;;;;;;16.17;57.37;100853.28;4940499;28;1914;-57
2022/07/05 03:16:13;;;;;;;;;;;;;;;16.13;57.32;100852.19;4955235;29;1498;-59
2022/07/05 03:18:39;;;;;;;;;;;;;;;16.12;57.16;100852.41;4941198;28;1400;-56
2022/07/05 03:21:06;;;;;;;;;;;;;;;16.05;57.21;100856.25;4942863;29;1161;-58
2022/07/05 03:23:33;;;;;;;;;;;;;;;16.06;57.14;100865.28;4946156;29;1227;-58
2022/07/05 03:25:59;;;;;;;;;;;;;;;16.02;56.78;100870.50;4946974;29;1303;-58
2022/07/05 03:28:25;;;;;;;;;;;;;;;15.99;56.71;100864.72;4961161;28;1259;-59
2022/07/05 03:30:53;;;;;;;;;;;;;;;15.99;56.78;100854.59;4943655;28;1182;-57
2022/07/05 03:33:21;;;;;;;;;;;;;;;16.85;57.32;100862.50;4958130;29;1973;-58
2022/07/05 03:35:47;;;;;;;;;;;;;;;17.01;57.70;100858.69;4943203;28;1210;-57
2022/07/05 03:38:15;;;;;;;;;;;;;;;16.56;57.96;100857.50;4958194;28;1480;-62
2022/07/05 03:40:42;;;;;;;;;;;;;;;16.40;58.04;100859.38;4941238;29;1119;-60
2022/07/05 03:43:08;;;;;;;;;;;;;;;16.29;57.90;100857.72;4941898;29;1368;-59
2022/07/05 03:45:36;;;;;;;;;;;;;;;16.33;57.49;100858.81;4940904;29;1169;-60
2022/07/05 03:48:02;;;;;;;;;;;;;;;16.16;57.67;100859.00;4946625;29;1238;-60
2022/07/05 03:50:29;;;;;;;;;;;;;;;16.15;57.20;100849.97;4945895;29;1212;-59
2022/07/05 03:52:55;;;;;;;;;;;;;;;16.19;57.13;100859.31;4944772;28;1930;-59
2022/07/05 03:55:21;;;;;;;;;;;;;;;16.13;57.09;100862.31;4940386;29;1279;-58
2022/07/05 03:57:47;;;;;;;;;;;;;;;16.07;56.98;100865.03;4960618;28;1119;-58
2022/07/05 04:00:14;;;;;;;;;;;;;;;17.32;57.01;100858.69;4944890;29;1591;-59
2022/07/05 04:02:42;;;;;;;;;;;;;;;16.72;58.29;100861.91;4958000;28;1311;-58
2022/07/05 04:05:13;;;;;;;;;;;;;;;16.51;58.00;100854.72;4939129;29;1164;-59
2022/07/05 04:07:47;;;;;;;;;;;;;;;16.40;58.05;100856.66;4943578;28;1342;-57
2022/07/05 04:10:13;;;;;;;;;;;;;;;16.30;57.58;100857.44;4956111;29;1587;-59
2022/07/05 04:12:38;;;;;;;;;;;;;;;16.28;57.33;100856.06;4939802;29;1985;-59
2022/07/05 04:15:04;;;;;;;;;;;;;;;16.27;57.30;100859.88;4957174;28;1144;-57
2022/07/05 04:17:30;;;;;;;;;;;;;;;16.20;57.34;100860.97;4940135;29;1203;-56
2022/07/05 04:19:55;;;;;;;;;;;;;;;16.17;57.31;100860.66;4959672;28;1900;-57
2022/07/05 04:22:21;;;;;;;;;;;;;;;16.13;57.02;100859.56;4941629;29;1109;-55
2022/07/05 04:27:32;;;;;;;;;;;;;;;16.07;56.76;100862.31;4953614;28;1348;-56
2022/07/05 04:29:58;;;;;;;;;;;;;;;16.07;56.81;100869.69;4939175;29;1394;-57
2022/07/05 04:32:24;;;;;;;;;;;;;;;16.72;57.48;100856.44;4940505;29;1907;-56
2022/07/05 04:34:50;;;;;;;;;;;;;;;17.24;57.07;100856.47;4957820;29;1113;-57
2022/07/05 04:37:15;;;;;;;;;;;;;;;16.67;58.09;100859.16;4940274;29;1132;-56
2022/07/05 04:39:41;;;;;;;;;;;;;;;16.52;58.06;100857.22;4957592;29;1074;-57
2022/07/05 04:42:09;;;;;;;;;;;;;;;16.38;58.05;100862.41;4942569;29;1184;-57
2022/07/05 04:44:35;;;;;;;;;;;;;;;16.37;57.70;100844.28;4959632;29;1187;-56
2022/07/05 04:47:00;;;;;;;;;;;;;;;16.35;57.27;100853.88;4944027;29;1267;-58
2022/07/05 04:49:26;;;;;;;;;;;;;;;16.25;57.16;100863.72;4960174;28;1243;-56
2022/07/05 04:51:51;;;;;;;;;;;;;;;16.26;57.15;100859.06;4944866;28;1199;-57
2022/07/05 04:54:19;;;;;;;;;;;;;;;16.20;57.31;100860.97;4944326;28;1972;-56
2022/07/05 04:56:44;;;;;;;;;;;;;;;16.14;57.25;100856.53;4962028;28;917;-57
2022/07/05 04:59:09;;;;;;;;;;;;;;;16.13;56.92;100859.56;4965335;28;975;-56
2022/07/05 05:01:35;;;;;;;;;;;;;;;16.11;57.22;100851.59;4959530;28;1208;-58
2022/07/05 05:04:01;;;;;;;;;;;;;;;16.14;57.05;100861.22;4962701;28;1094;-57
2022/07/05 05:06:26;;;;;;;;;;;;;;;16.08;56.94;100861.19;4964102;28;955;-57
2022/07/05 05:08:52;;;;;;;;;;;;;;;16.05;57.21;100860.91;4960203;29;1177;-57
2022/07/05 05:11:17;;;;;;;;;;;;;;;16.05;57.25;100861.72;4960915;29;1003;-56
2022/07/05 05:13:45;;;;;;;;;;;;;;;16.03;57.15;100855.69;4957228;28;1914;-57
2022/07/05 05:16:10;;;;;;;;;;;;;;;15.98;57.02;100858.41;4960431;29;1038;-56
2022/07/05 05:18:36;;;;;;;;;;;;;;;16.00;57.13;100864.44;4960384;29;1050;-57
2022/07/05 05:21:01;;;;;;;;;;;;;;;16.00;56.79;100858.97;4959683;29;872;-57
2022/07/05 05:23:27;;;;;;;;;;;;;;;16.07;56.86;100859.56;4960772;29;1007;-57
2022/07/05 05:25:52;;;;;;;;;;;;;;;17.38;56.75;100851.25;4960879;28;1194;-57
2022/07/05 05:28:18;;;;;;;;;;;;;;;16.75;57.97;100866.06;4960170;29;995;-57
2022/07/05 05:30:43;;;;;;;;;;;;;;;16.55;58.17;100872.31;4959950;29;1022;-58
2022/07/05 05:33:08;;;;;;;;;;;;;;;16.42;58.14;100865.41;4960348;29;1918;-58
2022/07/05 05:35:34;;;;;;;;;;;;;;;16.38;57.63;100867.91;4960095;29;1121;-58
2022/07/05 05:37:59;;;;;;;;;;;;;;;16.28;57.90;100867.84;4959952;29;978;-57
2022/07/05 05:40:25;;;;;;;;;;;;;;;16.28;57.45;100856.88;4960385;29;999;-58
2022/07/05 05:42:51;;;;;;;;;;;;;;;16.27;57.32;100866.22;4960243;29;1094;-57
2022/07/05 05:45:16;;;;;;;;;;;;;;;16.25;57.51;100868.38;4961442;28;948;-57
2022/07/05 05:47:43;;;;;;;;;;;;;;;16.19;57.36;100861.25;4960363;29;1098;-57
2022/07/05 05:50:08;;;;;;;;;;;;;;;16.18;57.20;100851.34;4959513;29;1039;-57
2022/07/05 05:52:34;;;;;;;;;;;;;;;16.20;57.11;100851.91;4959909;28;1980;-58
2022/07/05 05:54:59;;;;;;;;;;;;;;;17.66;54.28;100860.81;4958643;28;1497;-56
2022/07/05 05:57:24;;;;;;;;;;;;;;;17.20;54.59;100852.63;4965300;28;858;-57
2022/07/05 05:59:50;;;;;;;;;;;;;;;17.79;54.36;100860.22;4959518;29;1156;-58
2022/07/05 06:02:15;;;;;;;;;;;;;;;18.54;51.81;100849.47;4964745;28;964;-56
2022/07/05 06:04:41;;;;;;;;;;;;;;;15.56;60.55;100862.81;4960062;29;1101;-55
2022/07/05 06:07:06;;;;;;;;;;;;;;;18.52;53.07;100852.47;4959363;29;979;-57
2022/07/05 06:09:31;;;;;;;;;;;;;;;15.72;59.94;100860.16;4959620;29;1078;-56
2022/07/05 06:11:57;;;;;;;;;;;;;;;16.40;57.51;100859.38;4958146;29;1169;-55
2022/07/05 06:14:22;;;;;;;;;;;;;;;18.66;53.49;100847.16;4957486;29;1915;-56
2022/07/05 06:16:48;;;;;;;;;;;;;;;14.67;62.22;100851.41;4960459;28;1296;-52
2022/07/05 06:19:13;;;;;;;;;;;;;;;17.85;56.32;100855.53;4958492;29;1197;-55
2022/07/05 06:21:38;;;;;;;;;;;;;;;17.16;56.93;100851.53;4962291;28;904;-52
2022/07/05 06:24:04;;;;;;;;;;;;;;;15.59;59.84;100860.66;4959849;29;1148;-53
2022/07/05 06:26:29;;;;;;;;;;;;;;;18.43;54.85;100860.53;4961220;28;1113;-56
2022/07/05 06:28:55;;;;;;;;;;;;;;;15.08;62.29;100861.09;4959123;29;1153;-56
2022/07/05 06:31:20;;;;;;;;;;;;;;;17.71;57.48;100860.81;4959473;29;987;-58
2022/07/05 06:33:46;;;;;;;;;;;;;;;18.36;54.59;100860.00;4960507;28;1914;-56
2022/07/05 06:36:11;;;;;;;;;;;;;;;15.55;62.95;100857.59;4964271;28;1183;-57
2022/07/05 06:38:36;;;;;;;;;;;;;;;18.83;54.53;100851.44;4958332;29;1228;-56
2022/07/05 06:41:02;;;;;;;;;;;;;;;15.87;60.83;100848.50;4958412;29;1521;-56
2022/07/05 06:43:27;;;;;;;;;;;;;;;16.39;57.39;100858.53;4957784;29;1252;-56
2022/07/05 06:46:01;;;;;;;;;;;;;;;16.97;53.58;100852.09;4941957;28;1211;-53
2022/07/05 06:48:27;;;;;;;;;;;;;;;16.99;52.34;100844.41;4957344;28;1587;-55
2022/07/05 06:50:52;;;;;;;;;;;;;;;16.91;51.95;100843.03;4956694;28;1284;-55
2022/07/05 06:53:18;;;;;;;;;;;;;;;16.99;51.07;100843.56;4958439;29;1961;-56
2022/07/05 06:55:46;;;;;;;;;;;;;;;16.89;50.97;100855.38;4957571;29;1293;-57
2022/07/05 06:58:12;;;;;;;;;;;;;;;17.76;52.73;100857.22;4936694;29;1174;-56
2022/07/05 07:00:38;;;;;;;;;;;;;;;17.33;52.59;100860.31;4957239;28;1218;-57
2022/07/05 07:03:03;;;;;;;;;;;;;;;17.16;51.46;100843.28;4957453;29;1102;-55
2022/07/05 07:05:29;;;;;;;;;;;;;;;17.21;51.05;100848.78;4965618;28;995;-52
2022/07/05 07:10:38;;;;;;;;;;;;;;;18.36;51.96;100850.94;4954355;28;1183;-55
2022/07/05 07:13:04;;;;;;;;;;;;;;;14.81;60.24;100851.81;4957302;28;1906;-56
2022/07/05 07:15:29;;;;;;;;;;;;;;;17.44;55.87;100852.88;4961643;28;971;-57
2022/07/05 07:17:55;;;;;;;;;;;;;;;17.68;55.81;100861.34;4941724;28;1187;-52
2022/07/05 07:20:20;;;;;;;;;;;;;;;15.66;62.72;100867.53;4960134;28;1346;-55
2022/07/05 07:22:46;;;;;;;;;;;;;;;18.72;55.88;100862.56;4960497;28;1242;-56
2022/07/05 07:25:11;;;;;;;;;;;;;;;15.62;61.82;100866.41;4957114;28;1496;-56
2022/07/05 07:27:50;;;;;;;;;;;;;;;16.29;57.64;100865.94;4964279;28;1071;-55
2022/07/05 07:30:15;;;;;;;;;;;;;;;16.95;53.43;100859.78;4958491;29;1109;-57
2022/07/05 07:32:41;;;;;;;;;;;;;;;16.97;52.28;100868.56;4962379;28;1906;-56
2022/07/05 07:35:07;;;;;;;;;;;;;;;17.10;52.31;100870.75;4957975;28;1179;-52
2022/07/05 07:37:32;;;;;;;;;;;;;;;17.56;53.36;100864.41;4954579;28;1245;-56
2022/07/05 07:39:58;;;;;;;;;;;;;;;17.30;52.29;100865.53;4956171;28;1253;-55
2022/07/05 07:42:24;;;;;;;;;;;;;;;17.18;51.72;100863.06;4960063;28;1027;-56
2022/07/05 07:44:49;;;;;;;;;;;;;;;17.13;50.87;100877.63;4963202;28;1023;-56
2022/07/05 07:47:14;;;;;;;;;;;;;;;17.14;50.35;100878.44;4957549;28;1155;-56
2022/07/05 07:49:41;;;;;;;;;;;;;;;17.09;50.08;100877.34;4957143;28;1206;-56
2022/07/05 07:52:06;;;;;;;;;;;;;;;17.61;50.93;100864.41;4959895;28;1195;-55
2022/07/05 07:54:32;;;;;;;;;;;;;;;17.62;51.59;100878.97;4957480;28;1906;-55
2022/07/05 07:56:59;;;;;;;;;;;;;;;17.36;51.14;100879.00;4957133;28;1145;-57
2022/07/05 07:59:24;;;;;;;;;;;;;;;17.27;50.41;100875.97;4958748;28;1205;-55
2022/07/05 08:01:50;;;;;;;;;;;;;;;17.30;50.15;100882.03;4956941;28;1150;-56
2022/07/05 08:04:15;;;;;;;;;;;;;;;17.26;49.53;100884.50;4959229;28;1266;-56
2022/07/05 08:06:41;;;;;;;;;;;;;;;17.19;49.32;100887.50;4959161;28;1180;-56
2022/07/05 08:09:07;;;;;;;;;;;;;;;17.23;49.41;100876.81;4957740;28;995;-53
2022/07/05 08:11:32;;;;;;;;;;;;;;;17.88;50.84;100892.66;4957893;29;955;-55
2022/07/05 08:13:58;;;;;;;;;;;;;;;17.57;50.46;100887.22;4959610;28;1902;-56
2022/07/05 08:16:23;;;;;;;;;;;;;;;17.38;50.18;100884.22;4957106;28;1199;-56
2022/07/05 08:21:37;;;;;;;;;;;;;;;17.35;49.16;100880.09;4959562;28;1290;-56
2022/07/05 08:24:05;;;;;;;;;;;;;;;17.36;48.80;100881.75;4959143;28;1187;-57
2022/07/05 08:26:31;;;;;;;;;;;;;;;17.28;48.98;100882.31;4943350;29;1237;-57
2022/07/05 08:29:01;;;;;;;;;;;;;;;17.26;48.73;100884.50;4960830;28;1256;-57
2022/07/05 08:31:26;;;;;;;;;;;;;;;17.39;48.24;100886.69;4959830;28;1214;-57
2022/07/05 08:33:52;;;;;;;;;;;;;;;17.22;48.65;100876.00;4960172;28;1914;-57
2022/07/05 08:36:17;;;;;;;;;;;;;;;17.17;48.60;100886.97;4957990;28;1195;-56
2022/07/05 08:38:43;;;;;;;;;;;;;;;17.16;48.22;100888.06;4960871;28;1508;-56
2022/07/05 08:41:09;;;;;;;;;;;;;;;17.18;48.29;100890.53;4960485;28;1285;-56
2022/07/05 08:43:35;;;;;;;;;;;;;;;17.23;47.93;100899.59;4941998;29;1232;-56
2022/07/05 08:46:00;;;;;;;;;;;;;;;17.15;48.01;100896.59;4963030;28;1487;-56
2022/07/05 08:48:26;;;;;;;;;;;;;;;17.60;48.74;100889.44;4960308;28;1280;-56
2022/07/05 08:50:52;;;;;;;;;;;;;;;16.06;53.77;100890.81;4943117;29;1214;-56
2022/07/05 08:53:20;;;;;;;;;;;;;;;16.78;54.67;100884.72;4958530;28;1971;-57
2022/07/05 08:55:46;;;;;;;;;;;;;;;18.55;51.92;100884.97;4959822;28;1290;-57
2022/07/05 08:58:11;;;;;;;;;;;;;;;14.78;60.72;100881.63;4958969;28;1330;-57
2022/07/05 09:00:38;;;;;;;;;;;;;;;18.09;54.67;100888.75;4960190;28;1210;-57
2022/07/05 09:03:03;;;;;;;;;;;;;;;17.00;56.82;100890.00;4959235;28;1393;-55
2022/07/05 09:05:28;;;;;;;;;;;;;;;16.43;59.93;100889.84;4960558;28;1276;-56
2022/07/05 09:08:03;;;;;;;;;;;;;;;18.97;53.61;100878.09;4942848;28;1217;-56
2022/07/05 09:10:29;;;;;;;;;;;;;;;15.19;61.97;100885.56;4959422;28;1222;-57
2022/07/05 09:12:55;;;;;;;;;;;;;;;16.73;55.44;100890.19;4942956;29;1984;-57
2022/07/05 09:15:21;;;;;;;;;;;;;;;17.08;52.87;100881.22;4962735;28;1007;-58
2022/07/05 09:17:46;;;;;;;;;;;;;;;17.18;51.63;100888.63;4964281;28;1113;-57
2022/07/05 09:20:15;;;;;;;;;;;;;;;17.19;50.85;100882.03;4959444;28;1162;-57
2022/07/05 09:22:53;;;;;;;;;;;;;;;17.19;50.10;100893.00;4960991;28;1321;-58
2022/07/05 09:25:20;;;;;;;;;;;;;;;17.22;49.92;100888.91;4960893;28;1361;-58
2022/07/05 09:27:54;;;;;;;;;;;;;;;17.23;49.65;100874.06;4958521;28;1574;-58
2022/07/05 09:30:24;;;;;;;;;;;;;;;17.21;49.46;100881.78;4960138;28;1408;-58
2022/07/05 09:32:59;;;;;;;;;;;;;;;17.20;49.14;100880.94;4960310;28;1914;-57
2022/07/05 09:35:25;;;;;;;;;;;;;;;17.22;49.07;100888.91;4958962;28;1027;-57
2022/07/05 09:37:51;;;;;;;;;;;;;;;18.16;50.52;100877.47;4965462;28;1007;-56
2022/07/05 09:40:17;;;;;;;;;;;;;;;14.85;58.93;100876.78;4960112;29;1137;-56
2022/07/05 09:42:42;;;;;;;;;;;;;;;18.23;54.17;100872.47;4960442;29;1065;-56
2022/07/05 09:45:08;;;;;;;;;;;;;;;17.75;55.86;100870.16;4946271;28;1175;-56
2022/07/05 09:47:33;;;;;;;;;;;;;;;16.03;58.84;100871.31;4941209;28;1346;-53
2022/07/05 09:50:06;;;;;;;;;;;;;;;17.15;53.55;100860.88;4961642;28;1059;-55
2022/07/05 09:52:41;;;;;;;;;;;;;;;17.32;51.73;100868.81;4961222;28;1910;-55
2022/07/05 09:55:10;;;;;;;;;;;;;;;17.24;50.87;100851.81;4952234;29;1066;-56
2022/07/05 09:57:38;;;;;;;;;;;;;;;17.35;49.97;100862.78;4961271;28;1165;-55
2022/07/05 10:00:07;;;;;;;;;;;;;;;17.28;49.90;100863.88;4960112;28;988;-56
2022/07/05 10:02:39;;;;;;;;;;;;;;;17.29;49.38;100853.72;4965421;28;959;-56
2022/07/05 10:05:10;;;;;;;;;;;;;;;17.32;49.24;100858.69;4960578;28;1129;-56
2022/07/05 10:07:36;;;;;;;;;;;;;;;17.28;49.10;100852.91;4943404;29;1047;-55
2022/07/05 10:10:02;;;;;;;;;;;;;;;17.36;48.65;100859.78;4959465;28;1118;-56
2022/07/05 10:12:27;;;;;;;;;;;;;;;17.31;48.39;100854.28;4959729;29;1910;-53
2022/07/05 10:14:53;;;;;;;;;;;;;;;17.30;48.45;100851.81;4947943;29;1047;-56
2022/07/05 10:17:18;;;;;;;;;;;;;;;17.28;48.39;100865.81;4959309;29;1149;-57
2022/07/05 10:19:44;;;;;;;;;;;;;;;17.24;48.59;100865.53;4946088;29;1223;-56
2022/07/05 10:22:09;;;;;;;;;;;;;;;17.31;48.69;100869.94;4948404;28;1287;-55
2022/07/05 10:24:35;;;;;;;;;;;;;;;16.17;54.77;100867.00;4941878;29;906;-56
2022/07/05 10:27:02;;;;;;;;;;;;;;;16.95;54.78;100868.00;4964874;28;986;-55
2022/07/05 10:29:27;;;;;;;;;;;;;;;19.04;52.16;100861.25;4959470;29;1047;-56
2022/07/05 10:31:52;;;;;;;;;;;;;;;15.06;61.49;100853.94;4942055;29;1174;-51
2022/07/05 10:34:18;;;;;;;;;;;;;;;16.93;53.96;100861.97;4961229;28;1887;-56
2022/07/05 10:36:43;;;;;;;;;;;;;;;17.21;51.86;100852.34;4943237;29;903;-56
2022/07/05 10:39:09;;;;;;;;;;;;;;;17.26;50.70;100857.84;4958562;28;1264;-55
2022/07/05 10:41:34;;;;;;;;;;;;;;;17.20;50.34;100853.44;4958710;28;1333;-56
2022/07/05 10:44:00;;;;;;;;;;;;;;;17.30;49.58;100854.56;4945270;28;1236;-55
2022/07/05 10:46:38;;;;;;;;;;;;;;;17.26;49.18;100848.78;4959523;28;1547;-54
2022/07/05 10:49:10;;;;;;;;;;;;;;;17.27;49.21;100844.94;4959830;28;1179;-57
2022/07/05 10:51:35;;;;;;;;;;;;;;;17.29;48.84;100848.22;4963840;28;1015;-53
2022/07/05 10:54:01;;;;;;;;;;;;;;;17.75;49.88;100861.06;4945528;29;1911;-54
2022/07/05 10:56:27;;;;;;;;;;;;;;;15.56;56.95;100848.28;4958811;28;1287;-54
2022/07/05 10:59:04;;;;;;;;;;;;;;;17.68;54.60;100853.09;4957577;28;842;-56
2022/07/05 11:01:33;;;;;;;;;;;;;;;19.02;52.59;100848.88;4956754;28;1202;-56
2022/07/05 11:04:01;;;;;;;;;;;;;;;15.40;61.05;100855.56;4956325;28;1239;-55
2022/07/05 11:06:30;;;;;;;;;;;;;;;17.02;53.64;100841.09;4956770;28;1256;-55
2022/07/05 11:08:58;;;;;;;;;;;;;;;17.30;51.73;100838.06;4958871;28;1543;-54
2022/07/05 11:11:24;;;;;;;;;;;;;;;17.36;50.50;100843.28;4959580;28;1242;-53
2022/07/05 11:13:49;;;;;;;;;;;;;;;17.34;50.04;100844.66;4958906;28;1978;-55
2022/07/05 11:16:21;;;;;;;;;;;;;;;17.28;49.67;100841.09;4958680;28;1022;-55
2022/07/05 11:18:47;;;;;;;;;;;;;;;17.24;49.36;100843.56;4958873;28;948;-55
2022/07/05 11:21:19;;;;;;;;;;;;;;;17.33;49.17;100834.75;4940948;29;1103;-55
2022/07/05 11:23:45;;;;;;;;;;;;;;;17.31;48.83;100832.28;4962007;28;1132;-56
2022/07/05 11:26:13;;;;;;;;;;;;;;;17.31;48.82;100836.97;4945012;29;1094;-56
2022/07/05 11:28:43;;;;;;;;;;;;;;;17.34;48.46;100839.16;4946188;28;1413;-58
2022/07/05 11:31:09;;;;;;;;;;;;;;;17.35;48.28;100835.28;4952256;29;1121;-49
2022/07/05 11:33:42;;;;;;;;;;;;;;;17.26;48.51;100824.03;4940377;29;1990;-56
2022/07/05 11:36:26;;;;;;;;;;;;;;;17.28;48.19;100832.84;4954748;28;1266;-52
2022/07/05 11:39:20;;;;;;;;;;;;;;;17.39;48.63;100831.72;4952658;28;1199;-56
2022/07/05 11:41:47;;;;;;;;;;;;;;;15.42;56.06;100836.97;4937084;28;1886;-58
2022/07/05 11:44:12;;;;;;;;;;;;;;;16.24;53.22;100842.88;4958026;28;1338;-56
2022/07/05 11:46:38;;;;;;;;;;;;;;;16.96;50.51;100827.63;4955929;28;1195;-54
2022/07/05 11:49:03;;;;;;;;;;;;;;;17.03;49.69;100826.25;4957047;28;1322;-56
2022/07/05 11:51:29;;;;;;;;;;;;;;;17.14;49.07;100820.75;4954638;28;1127;-52
2022/07/05 11:53:54;;;;;;;;;;;;;;;17.10;48.79;100815.81;4956720;29;1906;-55
2022/07/05 11:56:20;;;;;;;;;;;;;;;17.18;48.52;100813.59;4957795;28;1190;-57
2022/07/05 11:58:45;;;;;;;;;;;;;;;17.25;47.96;100814.13;4939858;29;1178;-58
2022/07/05 12:01:11;;;;;;;;;;;;;;;18.24;49.29;100812.72;4957392;28;1221;-57
2022/07/05 12:03:39;;;;;;;;;;;;;;;14.77;58.19;100817.03;4957933;28;1187;-57
2022/07/05 12:06:13;;;;;;;;;;;;;;;18.08;53.09;100818.31;4959066;28;1225;-55
2022/07/05 12:08:38;;;;;;;;;;;;;;;17.13;56.45;100813.63;4957721;29;999;-55
2022/07/05 12:13:50;;;;;;;;;;;;;;;17.01;52.65;100813.91;4957555;29;1907;-56
2022/07/05 12:16:16;;;;;;;;;;;;;;;17.22;51.00;100811.94;4955220;28;1187;-56
2022/07/05 12:18:48;;;;;;;;;;;;;;;17.20;50.10;100811.41;4956784;28;1175;-54
2022/07/05 12:21:14;;;;;;;;;;;;;;;17.19;49.42;100807.00;4961640;28;1188;-53
2022/07/05 12:23:43;;;;;;;;;;;;;;;17.28;48.94;100800.69;4953205;28;1354;-52
2022/07/05 12:26:09;;;;;;;;;;;;;;;17.21;49.14;100805.63;4952096;28;1528;-52
2022/07/05 12:28:36;;;;;;;;;;;;;;;17.21;48.89;100799.34;4957403;28;1104;-56
2022/07/05 12:31:21;;;;;;;;;;;;;;;17.24;48.62;100810.56;4944502;29;1078;-55
2022/07/05 12:33:46;;;;;;;;;;;;;;;17.21;48.52;100804.84;4957209;28;1910;-55
2022/07/05 12:36:13;;;;;;;;;;;;;;;17.23;48.20;100806.19;4962104;28;1181;-56
2022/07/05 12:38:38;;;;;;;;;;;;;;;17.19;48.27;100796.84;4959433;28;1356;-53
2022/07/05 12:41:04;;;;;;;;;;;;;;;17.20;48.04;100800.44;4959022;28;1132;-53
2022/07/05 12:43:29;;;;;;;;;;;;;;;17.22;48.16;100800.97;4953158;28;1210;-54
2022/07/05 12:45:58;;;;;;;;;;;;;;;17.21;48.06;100802.09;4958434;28;1361;-54
2022/07/05 12:48:34;;;;;;;;;;;;;;;17.23;47.67;100797.13;4956284;28;1060;-55
2022/07/05 12:50:59;;;;;;;;;;;;;;;17.26;47.81;100796.56;4951767;28;1267;-56
2022/07/05 12:59:05;;;;;;;;;;;;;;;16.54;51.72;100796.56;4959350;28;1415;-55
2022/07/05 13:01:31;;;;;;;;;;;;;;;16.99;49.44;100789.44;4955471;28;1354;-54